sensor_id;sensor_type;location;lat;lon;timestamp;P1;durP1;ratioP1;P2;durP2;ratioP2
55053;SDS011;40954;45.668;18.980;2022-08-27T00:00:35;13.30;;;5.63;;
55053;SDS011;40954;45.668;18.980;2022-08-27T00:03:01;13.15;;;6.00;;
55053;SDS011;40954;45.668;18.980;2022-08-27T00:05:28;18.85;;;6.28;;
55053;SDS011;40954;45.668;18.980;2022-08-27T00:07:54;19.05;;;5.50;;
55053;SDS011;40954;45.668;18.980;2022-08-27T00:10:21;16.73;;;5.82;;
55053;SDS011;40954;45.668;18.980;2022-08-27T00:12:48;11.65;;;5.93;;
55053;SDS011;40954;45.668;18.980;2022-08-27T00:15:15;17.08;;;6.57;;
55053;SDS011;40954;45.668;18.980;2022-08-27T00:17:41;13.00;;;5.80;;
55053;SDS011;40954;45.668;18.980;2022-08-27T00:20:09;11.68;;;5.40;;
55053;SDS011;40954;45.668;18.980;2022-08-27T00:22:36;10.07;;;5.13;;
55053;SDS011;40954;45.668;18.980;2022-08-27T00:25:02;15.57;;;6.25;;
55053;SDS011;40954;45.668;18.980;2022-08-27T00:27:28;9.85;;;5.78;;
55053;SDS011;40954;45.668;18.980;2022-08-27T00:29:54;11.35;;;6.38;;
55053;SDS011;40954;45.668;18.980;2022-08-27T00:32:21;12.50;;;6.05;;
55053;SDS011;40954;45.668;18.980;2022-08-27T00:34:47;13.90;;;5.97;;
55053;SDS011;40954;45.668;18.980;2022-08-27T00:37:13;10.50;;;5.35;;
55053;SDS011;40954;45.668;18.980;2022-08-27T00:39:39;13.52;;;6.30;;
55053;SDS011;40954;45.668;18.980;2022-08-27T00:42:06;15.60;;;5.63;;
55053;SDS011;40954;45.668;18.980;2022-08-27T00:44:32;17.65;;;5.78;;
55053;SDS011;40954;45.668;18.980;2022-08-27T00:47:00;21.15;;;6.15;;
55053;SDS011;40954;45.668;18.980;2022-08-27T00:49:35;18.17;;;6.63;;
55053;SDS011;40954;45.668;18.980;2022-08-27T00:52:05;12.57;;;5.30;;
55053;SDS011;40954;45.668;18.980;2022-08-27T00:54:31;9.35;;;4.43;;
55053;SDS011;40954;45.668;18.980;2022-08-27T00:56:58;14.82;;;5.35;;
55053;SDS011;40954;45.668;18.980;2022-08-27T00:59:25;21.27;;;6.72;;
55053;SDS011;40954;45.668;18.980;2022-08-27T01:01:53;13.02;;;5.63;;
55053;SDS011;40954;45.668;18.980;2022-08-27T01:04:38;19.10;;;7.22;;
55053;SDS011;40954;45.668;18.980;2022-08-27T01:07:05;11.38;;;5.75;;
55053;SDS011;40954;45.668;18.980;2022-08-27T01:09:31;16.77;;;6.38;;
55053;SDS011;40954;45.668;18.980;2022-08-27T01:11:57;12.07;;;6.60;;
55053;SDS011;40954;45.668;18.980;2022-08-27T01:14:24;15.57;;;6.18;;
55053;SDS011;40954;45.668;18.980;2022-08-27T01:16:52;12.30;;;6.03;;
55053;SDS011;40954;45.668;18.980;2022-08-27T01:19:25;13.50;;;6.18;;
55053;SDS011;40954;45.668;18.980;2022-08-27T01:21:56;18.30;;;7.30;;
55053;SDS011;40954;45.668;18.980;2022-08-27T01:24:28;14.88;;;7.65;;
55053;SDS011;40954;45.668;18.980;2022-08-27T01:26:55;15.07;;;7.25;;
55053;SDS011;40954;45.668;18.980;2022-08-27T01:29:22;15.77;;;8.52;;
55053;SDS011;40954;45.668;18.980;2022-08-27T01:31:48;20.35;;;8.68;;
55053;SDS011;40954;45.668;18.980;2022-08-27T01:34:14;13.68;;;6.43;;
55053;SDS011;40954;45.668;18.980;2022-08-27T01:36:40;12.05;;;5.85;;
55053;SDS011;40954;45.668;18.980;2022-08-27T01:39:06;14.40;;;7.80;;
55053;SDS011;40954;45.668;18.980;2022-08-27T01:41:32;13.23;;;5.70;;
55053;SDS011;40954;45.668;18.980;2022-08-27T01:43:58;14.70;;;7.30;;
55053;SDS011;40954;45.668;18.980;2022-08-27T01:46:25;12.88;;;5.95;;
55053;SDS011;40954;45.668;18.980;2022-08-27T01:48:53;12.25;;;6.47;;
55053;SDS011;40954;45.668;18.980;2022-08-27T01:51:19;15.90;;;6.80;;
55053;SDS011;40954;45.668;18.980;2022-08-27T01:53:45;16.95;;;7.40;;
55053;SDS011;40954;45.668;18.980;2022-08-27T01:56:11;19.83;;;7.47;;
55053;SDS011;40954;45.668;18.980;2022-08-27T01:58:38;14.10;;;7.10;;
55053;SDS011;40954;45.668;18.980;2022-08-27T02:01:06;14.98;;;6.90;;
55053;SDS011;40954;45.668;18.980;2022-08-27T02:03:33;13.90;;;6.85;;
55053;SDS011;40954;45.668;18.980;2022-08-27T02:06:02;11.35;;;5.65;;
55053;SDS011;40954;45.668;18.980;2022-08-27T02:08:28;17.85;;;7.10;;
55053;SDS011;40954;45.668;18.980;2022-08-27T02:10:55;13.20;;;6.30;;
55053;SDS011;40954;45.668;18.980;2022-08-27T02:13:21;12.40;;;6.60;;
55053;SDS011;40954;45.668;18.980;2022-08-27T02:15:47;14.65;;;5.85;;
55053;SDS011;40954;45.668;18.980;2022-08-27T02:18:13;16.05;;;5.88;;
55053;SDS011;40954;45.668;18.980;2022-08-27T02:20:40;16.60;;;6.80;;
55053;SDS011;40954;45.668;18.980;2022-08-27T02:23:06;14.48;;;6.00;;
55053;SDS011;40954;45.668;18.980;2022-08-27T02:25:33;6.95;;;4.60;;
55053;SDS011;40954;45.668;18.980;2022-08-27T02:27:59;19.05;;;6.45;;
55053;SDS011;40954;45.668;18.980;2022-08-27T02:30:26;14.35;;;6.65;;
55053;SDS011;40954;45.668;18.980;2022-08-27T02:32:53;13.45;;;5.90;;
55053;SDS011;40954;45.668;18.980;2022-08-27T02:35:20;11.07;;;5.20;;
55053;SDS011;40954;45.668;18.980;2022-08-27T02:37:47;17.88;;;6.88;;
55053;SDS011;40954;45.668;18.980;2022-08-27T02:40:14;16.83;;;6.65;;
55053;SDS011;40954;45.668;18.980;2022-08-27T02:42:41;14.63;;;6.70;;
55053;SDS011;40954;45.668;18.980;2022-08-27T02:45:08;17.08;;;6.65;;
55053;SDS011;40954;45.668;18.980;2022-08-27T02:47:34;19.60;;;6.63;;
55053;SDS011;40954;45.668;18.980;2022-08-27T02:50:01;11.75;;;5.88;;
55053;SDS011;40954;45.668;18.980;2022-08-27T02:52:27;13.35;;;5.47;;
55053;SDS011;40954;45.668;18.980;2022-08-27T02:54:54;20.90;;;7.13;;
55053;SDS011;40954;45.668;18.980;2022-08-27T02:57:20;12.52;;;6.53;;
55053;SDS011;40954;45.668;18.980;2022-08-27T02:59:47;14.95;;;5.95;;
55053;SDS011;40954;45.668;18.980;2022-08-27T03:02:13;12.07;;;5.80;;
55053;SDS011;40954;45.668;18.980;2022-08-27T03:04:39;12.60;;;5.43;;
55053;SDS011;40954;45.668;18.980;2022-08-27T03:07:06;15.60;;;6.85;;
55053;SDS011;40954;45.668;18.980;2022-08-27T03:09:32;20.50;;;6.75;;
55053;SDS011;40954;45.668;18.980;2022-08-27T03:11:58;22.60;;;7.50;;
55053;SDS011;40954;45.668;18.980;2022-08-27T03:14:24;24.20;;;8.18;;
55053;SDS011;40954;45.668;18.980;2022-08-27T03:16:50;17.77;;;7.38;;
55053;SDS011;40954;45.668;18.980;2022-08-27T03:19:16;14.73;;;6.78;;
55053;SDS011;40954;45.668;18.980;2022-08-27T03:21:42;18.60;;;6.50;;
55053;SDS011;40954;45.668;18.980;2022-08-27T03:24:09;22.65;;;7.22;;
55053;SDS011;40954;45.668;18.980;2022-08-27T03:26:35;14.55;;;6.47;;
55053;SDS011;40954;45.668;18.980;2022-08-27T03:29:01;15.60;;;6.85;;
55053;SDS011;40954;45.668;18.980;2022-08-27T03:31:27;15.98;;;6.93;;
55053;SDS011;40954;45.668;18.980;2022-08-27T03:33:58;17.98;;;6.28;;
55053;SDS011;40954;45.668;18.980;2022-08-27T03:36:25;14.75;;;6.18;;
55053;SDS011;40954;45.668;18.980;2022-08-27T03:38:51;14.85;;;6.80;;
55053;SDS011;40954;45.668;18.980;2022-08-27T03:41:17;15.82;;;7.18;;
55053;SDS011;40954;45.668;18.980;2022-08-27T03:43:44;20.67;;;6.10;;
55053;SDS011;40954;45.668;18.980;2022-08-27T03:46:10;15.75;;;7.15;;
55053;SDS011;40954;45.668;18.980;2022-08-27T03:48:37;16.98;;;6.53;;
55053;SDS011;40954;45.668;18.980;2022-08-27T03:51:07;19.10;;;7.53;;
55053;SDS011;40954;45.668;18.980;2022-08-27T03:53:34;10.48;;;5.45;;
55053;SDS011;40954;45.668;18.980;2022-08-27T03:56:01;12.95;;;6.10;;
55053;SDS011;40954;45.668;18.980;2022-08-27T03:58:27;15.23;;;7.80;;
55053;SDS011;40954;45.668;18.980;2022-08-27T04:00:53;14.43;;;6.57;;
55053;SDS011;40954;45.668;18.980;2022-08-27T04:03:19;11.40;;;6.28;;
55053;SDS011;40954;45.668;18.980;2022-08-27T04:05:50;14.45;;;7.03;;
55053;SDS011;40954;45.668;18.980;2022-08-27T04:08:16;15.85;;;7.47;;
55053;SDS011;40954;45.668;18.980;2022-08-27T04:10:42;13.15;;;6.57;;
55053;SDS011;40954;45.668;18.980;2022-08-27T04:13:09;15.23;;;7.30;;
55053;SDS011;40954;45.668;18.980;2022-08-27T04:15:35;14.40;;;7.22;;
55053;SDS011;40954;45.668;18.980;2022-08-27T04:18:01;12.68;;;6.10;;
55053;SDS011;40954;45.668;18.980;2022-08-27T04:20:27;14.15;;;6.97;;
55053;SDS011;40954;45.668;18.980;2022-08-27T04:22:53;16.45;;;10.05;;
55053;SDS011;40954;45.668;18.980;2022-08-27T04:25:19;12.10;;;8.57;;
55053;SDS011;40954;45.668;18.980;2022-08-27T04:27:45;21.95;;;8.02;;
55053;SDS011;40954;45.668;18.980;2022-08-27T04:30:12;14.30;;;7.07;;
55053;SDS011;40954;45.668;18.980;2022-08-27T04:32:39;12.40;;;7.65;;
55053;SDS011;40954;45.668;18.980;2022-08-27T04:35:06;12.80;;;7.38;;
55053;SDS011;40954;45.668;18.980;2022-08-27T04:37:32;14.05;;;8.48;;
55053;SDS011;40954;45.668;18.980;2022-08-27T04:39:58;13.43;;;7.18;;
55053;SDS011;40954;45.668;18.980;2022-08-27T04:42:24;16.60;;;7.45;;
55053;SDS011;40954;45.668;18.980;2022-08-27T04:44:51;17.95;;;9.05;;
55053;SDS011;40954;45.668;18.980;2022-08-27T04:47:17;16.60;;;7.57;;
55053;SDS011;40954;45.668;18.980;2022-08-27T04:49:44;17.77;;;8.10;;
55053;SDS011;40954;45.668;18.980;2022-08-27T04:52:10;18.65;;;7.43;;
55053;SDS011;40954;45.668;18.980;2022-08-27T04:54:37;15.45;;;7.63;;
55053;SDS011;40954;45.668;18.980;2022-08-27T04:57:03;13.65;;;6.78;;
55053;SDS011;40954;45.668;18.980;2022-08-27T04:59:30;15.57;;;8.35;;
55053;SDS011;40954;45.668;18.980;2022-08-27T05:01:56;13.30;;;8.73;;
55053;SDS011;40954;45.668;18.980;2022-08-27T05:04:23;16.85;;;8.55;;
55053;SDS011;40954;45.668;18.980;2022-08-27T05:06:49;14.75;;;8.30;;
55053;SDS011;40954;45.668;18.980;2022-08-27T05:09:15;15.43;;;8.05;;
55053;SDS011;40954;45.668;18.980;2022-08-27T05:11:42;21.23;;;8.65;;
55053;SDS011;40954;45.668;18.980;2022-08-27T05:14:09;17.88;;;8.93;;
55053;SDS011;40954;45.668;18.980;2022-08-27T05:16:35;13.32;;;7.60;;
55053;SDS011;40954;45.668;18.980;2022-08-27T05:19:02;19.50;;;8.43;;
55053;SDS011;40954;45.668;18.980;2022-08-27T05:21:31;16.08;;;7.93;;
55053;SDS011;40954;45.668;18.980;2022-08-27T05:23:58;11.80;;;7.75;;
55053;SDS011;40954;45.668;18.980;2022-08-27T05:26:25;16.27;;;7.78;;
55053;SDS011;40954;45.668;18.980;2022-08-27T05:28:51;12.55;;;7.32;;
55053;SDS011;40954;45.668;18.980;2022-08-27T05:31:18;18.42;;;7.57;;
55053;SDS011;40954;45.668;18.980;2022-08-27T05:33:45;20.65;;;8.40;;
55053;SDS011;40954;45.668;18.980;2022-08-27T05:36:19;15.02;;;7.35;;
55053;SDS011;40954;45.668;18.980;2022-08-27T05:38:45;14.18;;;7.70;;
55053;SDS011;40954;45.668;18.980;2022-08-27T05:41:14;12.15;;;7.07;;
55053;SDS011;40954;45.668;18.980;2022-08-27T05:43:41;16.92;;;7.00;;
55053;SDS011;40954;45.668;18.980;2022-08-27T05:46:09;15.00;;;7.57;;
55053;SDS011;40954;45.668;18.980;2022-08-27T05:48:36;13.65;;;7.47;;
55053;SDS011;40954;45.668;18.980;2022-08-27T05:51:22;13.95;;;6.88;;
55053;SDS011;40954;45.668;18.980;2022-08-27T05:53:49;14.27;;;7.93;;
55053;SDS011;40954;45.668;18.980;2022-08-27T05:56:19;18.45;;;8.40;;
55053;SDS011;40954;45.668;18.980;2022-08-27T05:58:46;17.80;;;7.35;;
55053;SDS011;40954;45.668;18.980;2022-08-27T06:01:32;14.68;;;7.55;;
55053;SDS011;40954;45.668;18.980;2022-08-27T06:03:59;19.65;;;7.18;;
55053;SDS011;40954;45.668;18.980;2022-08-27T06:06:25;12.40;;;6.72;;
55053;SDS011;40954;45.668;18.980;2022-08-27T06:08:52;17.15;;;9.15;;
55053;SDS011;40954;45.668;18.980;2022-08-27T06:11:18;19.95;;;11.38;;
55053;SDS011;40954;45.668;18.980;2022-08-27T06:13:45;25.30;;;18.25;;
55053;SDS011;40954;45.668;18.980;2022-08-27T06:16:12;13.13;;;8.18;;
55053;SDS011;40954;45.668;18.980;2022-08-27T06:18:40;16.45;;;7.60;;
55053;SDS011;40954;45.668;18.980;2022-08-27T06:21:06;16.08;;;7.93;;
55053;SDS011;40954;45.668;18.980;2022-08-27T06:23:33;15.88;;;8.35;;
55053;SDS011;40954;45.668;18.980;2022-08-27T06:25:59;16.40;;;5.93;;
55053;SDS011;40954;45.668;18.980;2022-08-27T06:28:26;16.50;;;6.50;;
55053;SDS011;40954;45.668;18.980;2022-08-27T06:31:05;22.83;;;7.25;;
55053;SDS011;40954;45.668;18.980;2022-08-27T06:33:32;16.50;;;7.80;;
55053;SDS011;40954;45.668;18.980;2022-08-27T06:35:59;16.90;;;6.90;;
55053;SDS011;40954;45.668;18.980;2022-08-27T06:38:26;24.08;;;6.65;;
55053;SDS011;40954;45.668;18.980;2022-08-27T06:40:52;16.20;;;7.32;;
55053;SDS011;40954;45.668;18.980;2022-08-27T06:43:18;23.17;;;7.47;;
55053;SDS011;40954;45.668;18.980;2022-08-27T06:45:44;14.20;;;6.65;;
55053;SDS011;40954;45.668;18.980;2022-08-27T06:48:11;21.27;;;8.40;;
55053;SDS011;40954;45.668;18.980;2022-08-27T06:50:37;15.63;;;7.18;;
55053;SDS011;40954;45.668;18.980;2022-08-27T06:53:04;17.35;;;6.65;;
55053;SDS011;40954;45.668;18.980;2022-08-27T06:55:31;21.58;;;7.50;;
55053;SDS011;40954;45.668;18.980;2022-08-27T06:57:57;18.00;;;7.47;;
55053;SDS011;40954;45.668;18.980;2022-08-27T07:00:23;15.93;;;6.22;;
55053;SDS011;40954;45.668;18.980;2022-08-27T07:02:49;11.38;;;5.55;;
55053;SDS011;40954;45.668;18.980;2022-08-27T07:05:17;23.83;;;7.65;;
55053;SDS011;40954;45.668;18.980;2022-08-27T07:07:43;20.20;;;6.90;;
55053;SDS011;40954;45.668;18.980;2022-08-27T07:10:09;17.92;;;7.28;;
55053;SDS011;40954;45.668;18.980;2022-08-27T07:12:35;14.27;;;7.13;;
55053;SDS011;40954;45.668;18.980;2022-08-27T07:15:02;14.05;;;7.55;;
55053;SDS011;40954;45.668;18.980;2022-08-27T07:17:28;21.48;;;7.38;;
55053;SDS011;40954;45.668;18.980;2022-08-27T07:19:54;17.05;;;6.88;;
55053;SDS011;40954;45.668;18.980;2022-08-27T07:22:20;13.63;;;6.57;;
55053;SDS011;40954;45.668;18.980;2022-08-27T07:24:47;16.58;;;7.18;;
55053;SDS011;40954;45.668;18.980;2022-08-27T07:27:15;20.15;;;8.40;;
55053;SDS011;40954;45.668;18.980;2022-08-27T07:29:41;22.52;;;8.55;;
55053;SDS011;40954;45.668;18.980;2022-08-27T07:32:07;15.57;;;7.45;;
55053;SDS011;40954;45.668;18.980;2022-08-27T07:34:33;11.93;;;6.38;;
55053;SDS011;40954;45.668;18.980;2022-08-27T07:36:59;16.67;;;6.65;;
55053;SDS011;40954;45.668;18.980;2022-08-27T07:39:26;15.55;;;6.38;;
55053;SDS011;40954;45.668;18.980;2022-08-27T07:41:54;14.60;;;5.45;;
55053;SDS011;40954;45.668;18.980;2022-08-27T07:44:39;18.30;;;5.60;;
55053;SDS011;40954;45.668;18.980;2022-08-27T07:47:05;13.65;;;5.57;;
55053;SDS011;40954;45.668;18.980;2022-08-27T07:49:32;20.73;;;5.75;;
55053;SDS011;40954;45.668;18.980;2022-08-27T07:51:59;16.48;;;5.90;;
55053;SDS011;40954;45.668;18.980;2022-08-27T07:54:25;8.20;;;5.22;;
55053;SDS011;40954;45.668;18.980;2022-08-27T07:56:52;13.43;;;5.47;;
55053;SDS011;40954;45.668;18.980;2022-08-27T07:59:18;16.25;;;6.28;;
55053;SDS011;40954;45.668;18.980;2022-08-27T08:01:44;17.48;;;5.15;;
55053;SDS011;40954;45.668;18.980;2022-08-27T08:04:13;13.25;;;5.25;;
55053;SDS011;40954;45.668;18.980;2022-08-27T08:06:39;17.38;;;6.07;;
55053;SDS011;40954;45.668;18.980;2022-08-27T08:09:06;15.60;;;5.68;;
55053;SDS011;40954;45.668;18.980;2022-08-27T08:11:32;13.57;;;6.10;;
55053;SDS011;40954;45.668;18.980;2022-08-27T08:13:59;13.68;;;5.10;;
55053;SDS011;40954;45.668;18.980;2022-08-27T08:16:25;15.07;;;5.15;;
55053;SDS011;40954;45.668;18.980;2022-08-27T08:18:52;14.60;;;5.05;;
55053;SDS011;40954;45.668;18.980;2022-08-27T08:21:18;16.88;;;5.03;;
55053;SDS011;40954;45.668;18.980;2022-08-27T08:23:44;14.60;;;5.75;;
55053;SDS011;40954;45.668;18.980;2022-08-27T08:26:11;11.50;;;5.25;;
55053;SDS011;40954;45.668;18.980;2022-08-27T08:28:38;9.00;;;4.57;;
55053;SDS011;40954;45.668;18.980;2022-08-27T08:31:04;13.70;;;4.60;;
55053;SDS011;40954;45.668;18.980;2022-08-27T08:33:31;15.68;;;5.32;;
55053;SDS011;40954;45.668;18.980;2022-08-27T08:36:05;13.90;;;4.88;;
55053;SDS011;40954;45.668;18.980;2022-08-27T08:38:31;11.50;;;4.53;;
55053;SDS011;40954;45.668;18.980;2022-08-27T08:40:58;15.63;;;5.60;;
55053;SDS011;40954;45.668;18.980;2022-08-27T08:43:26;15.30;;;4.80;;
55053;SDS011;40954;45.668;18.980;2022-08-27T08:45:54;8.57;;;4.22;;
55053;SDS011;40954;45.668;18.980;2022-08-27T08:48:21;12.27;;;5.50;;
55053;SDS011;40954;45.668;18.980;2022-08-27T08:50:59;19.60;;;4.40;;
55053;SDS011;40954;45.668;18.980;2022-08-27T08:56:02;10.43;;;4.50;;
55053;SDS011;40954;45.668;18.980;2022-08-27T09:01:15;10.00;;;3.85;;
55053;SDS011;40954;45.668;18.980;2022-08-27T09:03:46;10.88;;;3.95;;
55053;SDS011;40954;45.668;18.980;2022-08-27T09:06:20;10.40;;;4.35;;
55053;SDS011;40954;45.668;18.980;2022-08-27T09:08:47;10.77;;;4.65;;
55053;SDS011;40954;45.668;18.980;2022-08-27T09:11:23;10.95;;;3.97;;
55053;SDS011;40954;45.668;18.980;2022-08-27T09:13:54;10.27;;;4.30;;
55053;SDS011;40954;45.668;18.980;2022-08-27T09:16:23;8.85;;;3.80;;
55053;SDS011;40954;45.668;18.980;2022-08-27T09:18:49;9.48;;;4.20;;
55053;SDS011;40954;45.668;18.980;2022-08-27T09:26:24;12.27;;;4.55;;
55053;SDS011;40954;45.668;18.980;2022-08-27T09:29:03;10.43;;;3.78;;
55053;SDS011;40954;45.668;18.980;2022-08-27T09:31:58;15.07;;;3.97;;
55053;SDS011;40954;45.668;18.980;2022-08-27T09:34:26;15.80;;;4.05;;
55053;SDS011;40954;45.668;18.980;2022-08-27T09:36:54;10.48;;;4.50;;
55053;SDS011;40954;45.668;18.980;2022-08-27T09:39:34;16.77;;;4.70;;
55053;SDS011;40954;45.668;18.980;2022-08-27T09:42:00;11.35;;;4.53;;
55053;SDS011;40954;45.668;18.980;2022-08-27T09:44:28;14.20;;;4.35;;
55053;SDS011;40954;45.668;18.980;2022-08-27T09:46:57;11.80;;;4.15;;
55053;SDS011;40954;45.668;18.980;2022-08-27T09:49:24;13.75;;;4.75;;
55053;SDS011;40954;45.668;18.980;2022-08-27T09:51:51;11.00;;;4.50;;
55053;SDS011;40954;45.668;18.980;2022-08-27T09:55:00;17.13;;;4.85;;
55053;SDS011;40954;45.668;18.980;2022-08-27T09:57:07;9.63;;;4.45;;
55053;SDS011;40954;45.668;18.980;2022-08-27T09:59:36;11.50;;;4.40;;
55053;SDS011;40954;45.668;18.980;2022-08-27T10:04:34;13.57;;;4.38;;
55053;SDS011;40954;45.668;18.980;2022-08-27T10:07:12;15.65;;;4.05;;
55053;SDS011;40954;45.668;18.980;2022-08-27T10:09:42;9.60;;;4.17;;
55053;SDS011;40954;45.668;18.980;2022-08-27T10:12:37;11.55;;;4.07;;
55053;SDS011;40954;45.668;18.980;2022-08-27T10:15:05;11.38;;;4.63;;
55053;SDS011;40954;45.668;18.980;2022-08-27T10:20:10;15.90;;;4.05;;
55053;SDS011;40954;45.668;18.980;2022-08-27T10:35:21;27.02;;;5.60;;
55053;SDS011;40954;45.668;18.980;2022-08-27T10:38:00;28.25;;;5.65;;
55053;SDS011;40954;45.668;18.980;2022-08-27T10:43:12;33.28;;;8.18;;
55053;SDS011;40954;45.668;18.980;2022-08-27T10:45:45;28.10;;;8.07;;
55053;SDS011;40954;45.668;18.980;2022-08-27T10:55:44;26.00;;;9.15;;
55053;SDS011;40954;45.668;18.980;2022-08-27T11:03:21;33.97;;;9.80;;
55053;SDS011;40954;45.668;18.980;2022-08-27T11:05:50;10.57;;;4.75;;
55053;SDS011;40954;45.668;18.980;2022-08-27T11:11:13;27.00;;;8.23;;
55053;SDS011;40954;45.668;18.980;2022-08-27T11:13:43;24.45;;;8.73;;
55053;SDS011;40954;45.668;18.980;2022-08-27T11:16:13;12.35;;;4.53;;
55053;SDS011;40954;45.668;18.980;2022-08-27T11:23:55;10.98;;;4.55;;
55053;SDS011;40954;45.668;18.980;2022-08-27T11:26:23;19.37;;;7.63;;
55053;SDS011;40954;45.668;18.980;2022-08-27T11:28:56;19.70;;;5.22;;
55053;SDS011;40954;45.668;18.980;2022-08-27T11:31:36;18.15;;;7.50;;
55053;SDS011;40954;45.668;18.980;2022-08-27T11:37:28;12.32;;;4.18;;
55053;SDS011;40954;45.668;18.980;2022-08-27T11:42:24;14.27;;;4.78;;
55053;SDS011;40954;45.668;18.980;2022-08-27T11:45:05;15.40;;;5.95;;
55053;SDS011;40954;45.668;18.980;2022-08-27T11:47:32;13.60;;;5.85;;
55053;SDS011;40954;45.668;18.980;2022-08-27T11:49:59;11.00;;;5.25;;
55053;SDS011;40954;45.668;18.980;2022-08-27T11:57:38;11.15;;;4.97;;
55053;SDS011;40954;45.668;18.980;2022-08-27T12:00:21;16.73;;;5.55;;
55053;SDS011;40954;45.668;18.980;2022-08-27T12:03:00;11.07;;;4.80;;
55053;SDS011;40954;45.668;18.980;2022-08-27T12:05:42;14.63;;;4.57;;
55053;SDS011;40954;45.668;18.980;2022-08-27T12:13:33;10.75;;;4.85;;
55053;SDS011;40954;45.668;18.980;2022-08-27T12:16:45;12.60;;;3.67;;
55053;SDS011;40954;45.668;18.980;2022-08-27T12:21:27;15.27;;;4.43;;
55053;SDS011;40954;45.668;18.980;2022-08-27T12:28:50;14.63;;;3.97;;
55053;SDS011;40954;45.668;18.980;2022-08-27T12:31:18;9.93;;;3.13;;
55053;SDS011;40954;45.668;18.980;2022-08-27T12:33:47;15.80;;;4.15;;
55053;SDS011;40954;45.668;18.980;2022-08-27T12:36:23;9.32;;;3.72;;
55053;SDS011;40954;45.668;18.980;2022-08-27T12:38:54;11.00;;;4.45;;
55053;SDS011;40954;45.668;18.980;2022-08-27T12:41:25;8.30;;;4.65;;
55053;SDS011;40954;45.668;18.980;2022-08-27T12:46:30;9.18;;;4.20;;
55053;SDS011;40954;45.668;18.980;2022-08-27T12:48:58;11.18;;;4.10;;
55053;SDS011;40954;45.668;18.980;2022-08-27T12:51:25;8.73;;;3.70;;
55053;SDS011;40954;45.668;18.980;2022-08-27T13:01:35;9.68;;;3.50;;
55053;SDS011;40954;45.668;18.980;2022-08-27T13:06:33;7.82;;;3.85;;
55053;SDS011;40954;45.668;18.980;2022-08-27T13:09:00;8.98;;;3.78;;
55053;SDS011;40954;45.668;18.980;2022-08-27T13:11:28;9.00;;;3.67;;
55053;SDS011;40954;45.668;18.980;2022-08-27T13:14:09;12.18;;;4.40;;
55053;SDS011;40954;45.668;18.980;2022-08-27T13:16:36;11.00;;;3.80;;
55053;SDS011;40954;45.668;18.980;2022-08-27T13:19:03;6.88;;;4.07;;
55053;SDS011;40954;45.668;18.980;2022-08-27T13:21:29;7.70;;;3.40;;
55053;SDS011;40954;45.668;18.980;2022-08-27T13:24:00;6.72;;;3.65;;
55053;SDS011;40954;45.668;18.980;2022-08-27T13:26:28;8.82;;;3.85;;
55053;SDS011;40954;45.668;18.980;2022-08-27T13:28:55;5.85;;;3.72;;
55053;SDS011;40954;45.668;18.980;2022-08-27T13:31:22;9.52;;;3.72;;
55053;SDS011;40954;45.668;18.980;2022-08-27T13:33:49;8.18;;;3.63;;
55053;SDS011;40954;45.668;18.980;2022-08-27T13:36:26;6.93;;;4.13;;
55053;SDS011;40954;45.668;18.980;2022-08-27T13:38:52;7.82;;;4.38;;
55053;SDS011;40954;45.668;18.980;2022-08-27T13:41:29;5.18;;;3.83;;
55053;SDS011;40954;45.668;18.980;2022-08-27T13:43:56;5.10;;;3.50;;
55053;SDS011;40954;45.668;18.980;2022-08-27T13:46:24;5.75;;;3.63;;
55053;SDS011;40954;45.668;18.980;2022-08-27T13:48:52;4.03;;;3.55;;
55053;SDS011;40954;45.668;18.980;2022-08-27T13:51:37;4.60;;;3.47;;
55053;SDS011;40954;45.668;18.980;2022-08-27T13:54:07;4.30;;;3.03;;
55053;SDS011;40954;45.668;18.980;2022-08-27T13:56:39;5.57;;;3.92;;
55053;SDS011;40954;45.668;18.980;2022-08-27T13:59:06;7.47;;;3.88;;
55053;SDS011;40954;45.668;18.980;2022-08-27T14:01:32;4.75;;;2.95;;
55053;SDS011;40954;45.668;18.980;2022-08-27T14:06:30;4.90;;;3.25;;
55053;SDS011;40954;45.668;18.980;2022-08-27T14:08:57;6.53;;;3.90;;
55053;SDS011;40954;45.668;18.980;2022-08-27T14:11:24;4.07;;;3.38;;
55053;SDS011;40954;45.668;18.980;2022-08-27T14:13:51;7.07;;;3.80;;
55053;SDS011;40954;45.668;18.980;2022-08-27T14:16:29;4.05;;;3.33;;
55053;SDS011;40954;45.668;18.980;2022-08-27T14:19:09;4.80;;;3.28;;
55053;SDS011;40954;45.668;18.980;2022-08-27T14:21:37;4.53;;;3.13;;
55053;SDS011;40954;45.668;18.980;2022-08-27T14:24:04;5.18;;;3.45;;
55053;SDS011;40954;45.668;18.980;2022-08-27T14:26:30;8.05;;;3.55;;
55053;SDS011;40954;45.668;18.980;2022-08-27T14:28:56;7.15;;;3.63;;
55053;SDS011;40954;45.668;18.980;2022-08-27T14:31:22;6.78;;;3.78;;
55053;SDS011;40954;45.668;18.980;2022-08-27T14:33:49;8.52;;;3.78;;
55053;SDS011;40954;45.668;18.980;2022-08-27T14:36:18;6.60;;;3.58;;
55053;SDS011;40954;45.668;18.980;2022-08-27T14:38:45;6.75;;;3.78;;
55053;SDS011;40954;45.668;18.980;2022-08-27T14:41:11;7.25;;;3.75;;
55053;SDS011;40954;45.668;18.980;2022-08-27T14:43:38;4.70;;;3.67;;
55053;SDS011;40954;45.668;18.980;2022-08-27T14:46:05;7.72;;;3.90;;
55053;SDS011;40954;45.668;18.980;2022-08-27T14:48:31;15.32;;;3.78;;
55053;SDS011;40954;45.668;18.980;2022-08-27T14:50:59;6.82;;;3.55;;
55053;SDS011;40954;45.668;18.980;2022-08-27T14:53:26;10.32;;;4.53;;
55053;SDS011;40954;45.668;18.980;2022-08-27T14:55:52;20.40;;;7.20;;
55053;SDS011;40954;45.668;18.980;2022-08-27T14:58:20;12.77;;;5.72;;
55053;SDS011;40954;45.668;18.980;2022-08-27T15:00:46;9.63;;;4.72;;
55053;SDS011;40954;45.668;18.980;2022-08-27T15:03:13;9.15;;;4.18;;
55053;SDS011;40954;45.668;18.980;2022-08-27T15:05:39;30.90;;;8.57;;
55053;SDS011;40954;45.668;18.980;2022-08-27T15:08:05;14.93;;;6.20;;
55053;SDS011;40954;45.668;18.980;2022-08-27T15:10:31;26.20;;;6.60;;
55053;SDS011;40954;45.668;18.980;2022-08-27T15:12:57;21.50;;;7.60;;
55053;SDS011;40954;45.668;18.980;2022-08-27T15:15:23;15.02;;;6.75;;
55053;SDS011;40954;45.668;18.980;2022-08-27T15:17:50;24.88;;;6.30;;
55053;SDS011;40954;45.668;18.980;2022-08-27T15:20:16;26.92;;;6.97;;
55053;SDS011;40954;45.668;18.980;2022-08-27T15:22:43;22.58;;;6.68;;
55053;SDS011;40954;45.668;18.980;2022-08-27T15:25:10;21.05;;;6.45;;
55053;SDS011;40954;45.668;18.980;2022-08-27T15:27:36;16.55;;;6.68;;
55053;SDS011;40954;45.668;18.980;2022-08-27T15:30:03;10.95;;;5.05;;
55053;SDS011;40954;45.668;18.980;2022-08-27T15:32:31;14.75;;;4.63;;
55053;SDS011;40954;45.668;18.980;2022-08-27T15:34:59;14.20;;;5.95;;
55053;SDS011;40954;45.668;18.980;2022-08-27T15:37:26;10.52;;;5.35;;
55053;SDS011;40954;45.668;18.980;2022-08-27T15:39:54;18.10;;;5.50;;
55053;SDS011;40954;45.668;18.980;2022-08-27T15:42:20;15.52;;;5.97;;
55053;SDS011;40954;45.668;18.980;2022-08-27T15:44:47;10.43;;;5.43;;
55053;SDS011;40954;45.668;18.980;2022-08-27T15:47:14;11.15;;;5.60;;
55053;SDS011;40954;45.668;18.980;2022-08-27T15:49:40;9.15;;;5.40;;
55053;SDS011;40954;45.668;18.980;2022-08-27T15:52:07;23.15;;;6.65;;
55053;SDS011;40954;45.668;18.980;2022-08-27T15:54:33;12.57;;;4.90;;
55053;SDS011;40954;45.668;18.980;2022-08-27T15:56:59;10.80;;;5.43;;
55053;SDS011;40954;45.668;18.980;2022-08-27T15:59:26;13.02;;;4.63;;